Aviation Digital Data Service (ADDS)

Output produced by METARs form (2330 UTC 25 May 2015)
found at http://aviationweather.gov/adds/metars/
 
KFAY 252325Z 2600/2624 17008KT P6SM FEW050 
     FM260930 17005KT P6SM SCT006 
     FM261400 19007KT P6SM SCT030 
     FM261700 16008KT P6SM SCT045